createdAt,value
2022-08-20T00:00:45.923Z,69.32
2022-08-20T00:01:45.940Z,69.32
2022-08-20T00:02:45.901Z,69.32
2022-08-20T00:03:50.036Z,69.32
2022-08-20T00:04:46.877Z,69.43
2022-08-20T00:05:45.865Z,69.43
2022-08-20T00:06:45.858Z,69.43
2022-08-20T00:07:45.846Z,69.43
2022-08-20T00:08:45.838Z,69.43
2022-08-20T00:09:45.856Z,69.43
2022-08-20T00:10:47.644Z,69.43
2022-08-20T00:11:46.802Z,69.43
2022-08-20T00:12:45.798Z,69.43
2022-08-20T00:13:45.782Z,69.43
2022-08-20T00:14:45.802Z,69.43
2022-08-20T00:15:45.761Z,69.43
2022-08-20T00:16:45.752Z,69.43
2022-08-20T00:17:45.739Z,69.43
2022-08-20T00:18:45.731Z,69.43
2022-08-20T00:19:45.751Z,69.43
2022-08-20T00:20:45.711Z,69.43
2022-08-20T00:21:45.695Z,69.43
2022-08-20T00:22:45.687Z,69.43
2022-08-20T00:23:45.677Z,69.43
2022-08-20T00:24:45.696Z,69.53
2022-08-20T00:25:45.654Z,69.53
2022-08-20T00:26:51.770Z,69.53
2022-08-20T00:27:46.633Z,69.53
2022-08-20T00:28:45.656Z,69.53
2022-08-20T00:29:45.614Z,69.53
2022-08-20T00:30:45.604Z,69.53
2022-08-20T00:31:45.592Z,69.53
2022-08-20T00:32:45.584Z,69.53
2022-08-20T00:33:45.603Z,69.53
2022-08-20T00:34:45.565Z,69.53
2022-08-20T00:35:45.550Z,69.53
2022-08-20T00:36:45.567Z,69.53
2022-08-20T00:37:45.530Z,69.53
2022-08-20T00:38:45.520Z,69.53
2022-08-20T00:39:45.563Z,69.53
2022-08-20T00:40:45.503Z,69.53
2022-08-20T00:41:45.519Z,69.53
2022-08-20T00:42:45.480Z,69.53
2022-08-20T00:43:45.470Z,69.53
2022-08-20T00:44:45.487Z,69.62
2022-08-20T00:45:45.446Z,69.62
2022-08-20T00:46:45.438Z,69.62
2022-08-20T00:47:51.385Z,69.62
2022-08-20T00:48:46.414Z,69.62
2022-08-20T00:49:45.436Z,69.62
2022-08-20T00:50:45.396Z,69.62
2022-08-20T00:51:45.383Z,69.62
2022-08-20T00:52:49.808Z,69.62
2022-08-20T00:53:45.360Z,69.62
2022-08-20T00:54:45.391Z,69.62
2022-08-20T00:55:45.343Z,69.62
2022-08-20T00:56:45.331Z,69.62
2022-08-20T00:58:01.403Z,69.62
2022-08-20T00:58:46.311Z,69.62
2022-08-20T00:59:45.299Z,69.62
2022-08-20T01:00:45.326Z,69.62
2022-08-20T01:01:55.444Z,69.62
2022-08-20T01:02:46.298Z,69.62
2022-08-20T01:03:45.258Z,69.62
2022-08-20T01:04:45.251Z,69.62
2022-08-20T01:05:45.240Z,69.62
2022-08-20T01:06:45.226Z,69.73
2022-08-20T01:07:45.249Z,69.73
2022-08-20T01:08:45.206Z,69.62
2022-08-20T01:09:57.674Z,69.62
2022-08-20T01:10:46.183Z,69.62
2022-08-20T01:11:45.175Z,69.62
2022-08-20T01:12:45.164Z,69.62
2022-08-20T01:13:45.157Z,69.73
2022-08-20T01:14:45.167Z,69.73
2022-08-20T01:15:45.131Z,69.73
2022-08-20T01:16:45.120Z,69.62
2022-08-20T01:17:45.139Z,69.62
2022-08-20T01:18:45.101Z,69.62
2022-08-20T01:19:45.089Z,69.73
2022-08-20T01:20:45.083Z,69.73
2022-08-20T01:21:49.317Z,69.73
2022-08-20T01:22:46.084Z,69.73
2022-08-20T01:23:45.047Z,69.73
2022-08-20T01:24:45.063Z,69.73
2022-08-20T01:25:45.028Z,69.73
2022-08-20T01:26:45.015Z,69.73
2022-08-20T01:27:45.006Z,69.73
2022-08-20T01:28:44.995Z,69.73
2022-08-20T01:29:45.015Z,69.73
2022-08-20T01:30:44.975Z,69.73
2022-08-20T01:31:44.968Z,69.73
2022-08-20T01:32:44.954Z,69.73
2022-08-20T01:33:44.944Z,69.73
2022-08-20T01:34:44.960Z,69.73
2022-08-20T01:35:44.922Z,69.73
2022-08-20T01:36:46.476Z,69.73
2022-08-20T01:37:44.904Z,69.73
2022-08-20T01:38:54.095Z,69.73
2022-08-20T01:39:45.955Z,69.73
2022-08-20T01:40:44.869Z,69.73
2022-08-20T01:41:44.861Z,69.73
2022-08-20T01:42:58.812Z,69.73
2022-08-20T01:43:45.839Z,69.73
2022-08-20T01:44:44.855Z,69.73
2022-08-20T01:45:44.817Z,69.73
2022-08-20T01:46:44.813Z,69.73
2022-08-20T01:47:44.800Z,69.73
2022-08-20T01:48:44.786Z,69.73
2022-08-20T01:49:44.806Z,69.73
2022-08-20T01:50:44.765Z,69.73
2022-08-20T01:51:44.758Z,69.73
2022-08-20T01:52:44.743Z,69.73
2022-08-20T01:53:44.736Z,69.73
2022-08-20T01:54:44.754Z,69.73
2022-08-20T01:55:44.739Z,69.73
2022-08-20T01:56:44.702Z,69.73
2022-08-20T01:57:44.691Z,69.73
2022-08-20T01:58:44.685Z,69.73
2022-08-20T01:59:44.670Z,69.73
2022-08-20T02:00:44.692Z,69.73
2022-08-20T02:01:46.374Z,69.73
2022-08-20T02:02:44.643Z,69.73
2022-08-20T02:03:44.887Z,69.73
2022-08-20T02:04:44.621Z,69.73
2022-08-20T02:05:44.635Z,69.73
2022-08-20T02:06:56.243Z,69.73
2022-08-20T02:07:45.587Z,69.73
2022-08-20T02:08:44.577Z,69.73
2022-08-20T02:09:44.567Z,69.73
2022-08-20T02:10:44.587Z,69.73
2022-08-20T02:11:44.545Z,69.73
2022-08-20T02:12:44.562Z,69.73
2022-08-20T02:13:44.527Z,69.73
2022-08-20T02:14:44.515Z,69.73
2022-08-20T02:15:44.502Z,69.73
2022-08-20T02:16:44.493Z,69.73
2022-08-20T02:17:45.512Z,69.73
2022-08-20T02:18:44.473Z,69.73
2022-08-20T02:19:44.461Z,69.73
2022-08-20T02:20:44.452Z,69.73
2022-08-20T02:21:44.441Z,69.73
2022-08-20T02:22:50.325Z,69.73
2022-08-20T02:23:45.418Z,69.73
2022-08-20T02:24:44.411Z,69.73
2022-08-20T02:25:44.401Z,69.73
2022-08-20T02:26:44.394Z,69.73
2022-08-20T02:27:44.434Z,69.73
2022-08-20T02:28:44.367Z,69.73
2022-08-20T02:29:44.356Z,69.73
2022-08-20T02:30:44.350Z,69.73
2022-08-20T02:32:24.421Z,69.73
2022-08-20T02:32:45.355Z,69.73
2022-08-20T02:34:22.414Z,69.73
2022-08-20T02:34:45.307Z,69.73
2022-08-20T02:35:44.293Z,69.73
2022-08-20T02:36:44.287Z,69.73
2022-08-20T02:37:44.272Z,69.73
2022-08-20T02:38:44.295Z,69.73
2022-08-20T02:39:44.331Z,69.73
2022-08-20T02:40:44.243Z,69.73
2022-08-20T02:41:44.230Z,69.73
2022-08-20T02:42:44.220Z,69.73
2022-08-20T02:43:44.209Z,69.73
2022-08-20T02:44:44.229Z,69.73
2022-08-20T02:45:44.246Z,69.73
2022-08-20T02:46:44.178Z,69.73
2022-08-20T02:47:44.168Z,69.73
2022-08-20T02:48:44.156Z,69.73
2022-08-20T02:49:44.176Z,69.73
2022-08-20T02:50:44.137Z,69.73
2022-08-20T02:51:44.124Z,69.73
2022-08-20T02:52:46.243Z,69.82
2022-08-20T02:53:45.102Z,69.82
2022-08-20T02:54:44.095Z,69.73
2022-08-20T02:55:44.112Z,69.73
2022-08-20T02:56:44.075Z,69.73
2022-08-20T02:57:44.060Z,69.73
2022-08-20T02:58:44.053Z,69.73
2022-08-20T02:59:44.039Z,69.73
2022-08-20T03:00:44.058Z,69.73
2022-08-20T03:01:44.019Z,69.73
2022-08-20T03:02:44.014Z,69.73
2022-08-20T03:03:44.000Z,69.73
2022-08-20T03:04:43.988Z,69.73
2022-08-20T03:05:44.006Z,69.82
2022-08-20T03:06:43.968Z,69.73
2022-08-20T03:07:43.954Z,69.73
2022-08-20T03:08:43.948Z,69.73
2022-08-20T03:09:43.934Z,69.82
2022-08-20T03:10:43.956Z,69.82
2022-08-20T03:11:43.939Z,69.82
2022-08-20T03:12:43.905Z,69.82
2022-08-20T03:13:43.893Z,69.82
2022-08-20T03:14:43.885Z,69.82
2022-08-20T03:15:43.871Z,69.82
2022-08-20T03:16:43.891Z,69.73
2022-08-20T03:17:43.851Z,69.82
2022-08-20T03:18:43.860Z,69.82
2022-08-20T03:19:43.831Z,69.82
2022-08-20T03:20:43.817Z,69.82
2022-08-20T03:21:43.838Z,69.82
2022-08-20T03:22:43.800Z,69.82
2022-08-20T03:23:43.788Z,69.82
2022-08-20T03:24:43.779Z,69.82
2022-08-20T03:25:43.768Z,69.82
2022-08-20T03:26:43.788Z,69.92
2022-08-20T03:27:43.772Z,69.82
2022-08-20T03:28:43.738Z,69.92
2022-08-20T03:29:43.737Z,69.92
2022-08-20T03:30:43.715Z,69.92
2022-08-20T03:31:43.710Z,69.82
2022-08-20T03:32:43.725Z,69.82
2022-08-20T03:33:52.915Z,69.82
2022-08-20T03:34:44.673Z,69.92
2022-08-20T03:35:43.662Z,69.92
2022-08-20T03:36:43.654Z,69.82
2022-08-20T03:37:43.669Z,69.82
2022-08-20T03:38:43.631Z,69.82
2022-08-20T03:39:43.701Z,69.82
2022-08-20T03:40:43.631Z,69.92
2022-08-20T03:41:43.605Z,69.92
2022-08-20T03:42:43.621Z,69.92
2022-08-20T03:43:43.604Z,69.92
2022-08-20T03:44:43.570Z,69.82
2022-08-20T03:45:43.558Z,69.92
2022-08-20T03:46:43.547Z,69.92
2022-08-20T03:47:43.536Z,69.82
2022-08-20T03:48:43.554Z,69.92
2022-08-20T03:49:43.515Z,69.82
2022-08-20T03:50:43.506Z,69.82
2022-08-20T03:51:58.005Z,69.92
2022-08-20T03:52:44.482Z,69.92
2022-08-20T03:53:43.506Z,69.92
2022-08-20T03:54:43.465Z,69.92
2022-08-20T03:55:43.452Z,69.92
2022-08-20T03:56:43.443Z,69.92
2022-08-20T03:57:43.431Z,69.92
2022-08-20T03:58:43.448Z,69.92
2022-08-20T03:59:43.433Z,69.92
2022-08-20T04:00:43.399Z,69.92
2022-08-20T04:01:46.211Z,69.92
2022-08-20T04:02:43.378Z,69.92
2022-08-20T04:03:43.365Z,69.92
2022-08-20T04:04:43.384Z,69.92
2022-08-20T04:05:43.343Z,69.92
2022-08-20T04:06:43.337Z,69.92
2022-08-20T04:07:43.322Z,69.92
2022-08-20T04:08:43.313Z,69.92
2022-08-20T04:09:43.330Z,69.92
2022-08-20T04:10:43.292Z,69.92
2022-08-20T04:11:43.281Z,69.92
2022-08-20T04:12:49.754Z,69.92
2022-08-20T04:13:44.285Z,69.92
2022-08-20T04:14:43.277Z,69.92
2022-08-20T04:15:43.264Z,69.92
2022-08-20T04:16:43.231Z,69.92
2022-08-20T04:17:43.216Z,69.92
2022-08-20T04:18:43.205Z,69.82
2022-08-20T04:19:44.195Z,69.92
2022-08-20T04:20:43.214Z,69.82
2022-08-20T04:21:43.175Z,69.82
2022-08-20T04:22:43.164Z,69.92
2022-08-20T04:23:44.152Z,69.82
2022-08-20T04:24:43.145Z,69.92
2022-08-20T04:25:43.367Z,69.82
2022-08-20T04:26:43.151Z,69.92
2022-08-20T04:27:43.113Z,69.82
2022-08-20T04:28:43.103Z,69.92
2022-08-20T04:29:43.143Z,69.92
2022-08-20T04:30:47.519Z,69.92
2022-08-20T04:31:44.098Z,69.92
2022-08-20T04:32:43.057Z,69.92
2022-08-20T04:33:43.049Z,69.92
2022-08-20T04:34:43.040Z,69.82
2022-08-20T04:35:43.027Z,69.92
2022-08-20T04:36:43.074Z,69.92
2022-08-20T04:37:43.005Z,69.92
2022-08-20T04:38:48.438Z,69.92
2022-08-20T04:39:44.036Z,69.92
2022-08-20T04:40:42.976Z,69.92
2022-08-20T04:41:42.965Z,69.92
2022-08-20T04:42:43.555Z,69.92
2022-08-20T04:43:42.942Z,69.92
2022-08-20T04:44:42.932Z,69.92
2022-08-20T04:45:42.920Z,69.92
2022-08-20T04:46:42.912Z,69.92
2022-08-20T04:47:42.931Z,69.92
2022-08-20T04:48:42.889Z,69.82
2022-08-20T04:49:43.876Z,69.82
2022-08-20T04:50:42.870Z,69.82
2022-08-20T04:51:42.858Z,69.82
2022-08-20T04:52:42.875Z,69.92
2022-08-20T04:53:42.836Z,69.92
2022-08-20T04:54:42.827Z,69.82
2022-08-20T04:55:42.820Z,69.92
2022-08-20T04:56:42.805Z,69.82
2022-08-20T04:57:42.821Z,69.92
2022-08-20T04:58:42.810Z,69.82
2022-08-20T04:59:42.772Z,69.82
2022-08-20T05:00:42.765Z,69.82
2022-08-20T05:01:42.751Z,69.82
2022-08-20T05:02:42.741Z,69.82
2022-08-20T05:03:42.758Z,69.82
2022-08-20T05:04:42.720Z,69.82
2022-08-20T05:05:42.707Z,69.82
2022-08-20T05:06:42.699Z,69.82
2022-08-20T05:07:42.687Z,69.82
2022-08-20T05:08:42.707Z,69.82
2022-08-20T05:09:43.882Z,69.82
2022-08-20T05:10:42.655Z,69.92
2022-08-20T05:11:42.646Z,69.92
2022-08-20T05:12:42.637Z,69.82
2022-08-20T05:13:43.625Z,69.82
2022-08-20T05:14:42.643Z,69.82
2022-08-20T05:15:42.602Z,69.82
2022-08-20T05:16:42.593Z,69.92
2022-08-20T05:17:42.581Z,69.92
2022-08-20T05:18:42.573Z,69.92
2022-08-20T05:19:42.615Z,69.82
2022-08-20T05:20:42.554Z,69.92
2022-08-20T05:21:42.540Z,69.82
2022-08-20T05:22:42.530Z,69.92
2022-08-20T05:23:42.521Z,69.82
2022-08-20T05:24:42.508Z,69.82
2022-08-20T05:25:42.523Z,69.82
2022-08-20T05:26:42.487Z,69.82
2022-08-20T05:27:47.289Z,69.82
2022-08-20T05:28:52.762Z,69.82
2022-08-20T05:29:43.453Z,69.92
2022-08-20T05:30:42.473Z,69.92
2022-08-20T05:31:42.442Z,69.92
2022-08-20T05:32:44.523Z,69.92
2022-08-20T05:33:42.413Z,69.92
2022-08-20T05:34:42.403Z,69.92
2022-08-20T05:35:42.447Z,69.92
2022-08-20T05:36:42.381Z,69.92
2022-08-20T05:37:42.372Z,69.92
2022-08-20T05:38:42.357Z,69.92
2022-08-20T05:39:43.384Z,69.92
2022-08-20T05:40:42.340Z,69.92
2022-08-20T05:41:42.355Z,69.92
2022-08-20T05:42:42.316Z,69.92
2022-08-20T05:43:42.309Z,69.92
2022-08-20T05:44:42.297Z,69.92
2022-08-20T05:45:42.288Z,69.92
2022-08-20T05:46:42.302Z,69.92
2022-08-20T05:47:42.869Z,69.92
2022-08-20T05:48:42.253Z,69.92
2022-08-20T05:49:42.248Z,69.92
2022-08-20T05:50:42.235Z,69.92
2022-08-20T05:51:42.249Z,69.92
2022-08-20T05:52:42.212Z,69.92
2022-08-20T05:53:42.204Z,69.92
2022-08-20T05:54:42.193Z,69.92
2022-08-20T05:55:42.183Z,69.92
2022-08-20T05:56:42.201Z,69.92
2022-08-20T05:57:42.187Z,69.92
2022-08-20T05:58:42.149Z,69.92
2022-08-20T05:59:42.138Z,69.92
2022-08-20T06:00:42.127Z,69.92
2022-08-20T06:01:42.290Z,69.92
2022-08-20T06:02:42.135Z,69.92
2022-08-20T06:03:42.097Z,69.92
2022-08-20T06:04:42.086Z,69.92
2022-08-20T06:05:42.073Z,69.92
2022-08-20T06:06:46.209Z,69.92
2022-08-20T06:07:42.083Z,69.92
2022-08-20T06:08:42.068Z,69.92
2022-08-20T06:09:44.433Z,69.92
2022-08-20T06:10:43.325Z,69.92
2022-08-20T06:11:42.014Z,69.92
2022-08-20T06:12:42.001Z,69.92
2022-08-20T06:13:42.017Z,69.92
2022-08-20T06:14:41.977Z,69.92
2022-08-20T06:15:41.975Z,69.92
2022-08-20T06:16:46.749Z,69.92
2022-08-20T06:17:42.948Z,69.92
2022-08-20T06:18:41.964Z,69.92
2022-08-20T06:19:44.120Z,69.92
2022-08-20T06:20:41.915Z,69.92
2022-08-20T06:21:41.905Z,69.92
2022-08-20T06:22:41.893Z,69.92
2022-08-20T06:23:45.555Z,69.92
2022-08-20T06:24:42.897Z,69.92
2022-08-20T06:25:41.863Z,69.92
2022-08-20T06:26:41.850Z,69.92
2022-08-20T06:27:41.842Z,69.92
2022-08-20T06:28:41.830Z,69.92
2022-08-20T06:29:41.847Z,69.92
2022-08-20T06:30:41.806Z,69.92
2022-08-20T06:31:41.798Z,69.92
2022-08-20T06:32:41.787Z,69.92
2022-08-20T06:33:41.780Z,69.92
2022-08-20T06:34:50.732Z,69.92
2022-08-20T06:35:42.754Z,69.92
2022-08-20T06:36:41.747Z,69.92
2022-08-20T06:37:41.733Z,69.92
2022-08-20T06:38:41.721Z,69.92
2022-08-20T06:39:41.824Z,69.92
2022-08-20T06:40:41.702Z,69.92
2022-08-20T06:41:41.724Z,69.92
2022-08-20T06:42:47.210Z,69.92
2022-08-20T06:43:42.669Z,69.92
2022-08-20T06:44:41.659Z,69.92
2022-08-20T06:45:41.677Z,69.92
2022-08-20T06:46:41.642Z,69.92
2022-08-20T06:47:41.633Z,70.03
2022-08-20T06:48:41.618Z,70.32
2022-08-20T06:49:41.608Z,70.12
2022-08-20T06:50:47.232Z,70.12
2022-08-20T06:51:42.587Z,70.12
2022-08-20T06:53:03.278Z,70.03
2022-08-20T06:53:42.569Z,70.03
2022-08-20T06:54:41.555Z,70.03
2022-08-20T06:55:41.544Z,70.03
2022-08-20T06:56:42.563Z,70.03
2022-08-20T06:57:41.527Z,70.03
2022-08-20T06:58:41.514Z,69.92
2022-08-20T06:59:41.506Z,70.03
2022-08-20T07:00:41.534Z,70.03
2022-08-20T07:01:41.560Z,70.03
2022-08-20T07:02:41.471Z,70.03
2022-08-20T07:03:54.871Z,70.03
2022-08-20T07:04:42.449Z,70.03
2022-08-20T07:05:41.440Z,70.03
2022-08-20T07:06:41.484Z,69.92
2022-08-20T07:07:41.420Z,70.03
2022-08-20T07:08:41.411Z,70.22
2022-08-20T07:09:41.401Z,70.32
2022-08-20T07:10:41.388Z,70.32
2022-08-20T07:11:41.381Z,70.42
2022-08-20T07:12:41.399Z,70.42
2022-08-20T07:13:41.356Z,70.52
2022-08-20T07:14:41.349Z,70.52
2022-08-20T07:15:41.338Z,70.62
2022-08-20T07:16:41.325Z,70.62
2022-08-20T07:17:41.345Z,70.62
2022-08-20T07:18:41.321Z,70.62
2022-08-20T07:19:41.295Z,70.62
2022-08-20T07:20:41.282Z,70.62
2022-08-20T07:21:41.275Z,70.62
2022-08-20T07:22:41.300Z,70.72
2022-08-20T07:23:41.255Z,70.62
2022-08-20T07:24:43.217Z,70.62
2022-08-20T07:25:41.232Z,70.62
2022-08-20T07:26:41.222Z,70.72
2022-08-20T07:27:41.245Z,70.62
2022-08-20T07:28:41.225Z,70.62
2022-08-20T07:29:41.191Z,70.72
2022-08-20T07:30:55.808Z,70.72
2022-08-20T07:31:42.329Z,70.72
2022-08-20T07:32:45.156Z,70.72
2022-08-20T07:33:41.177Z,70.72
2022-08-20T07:34:43.684Z,70.72
2022-08-20T07:35:41.130Z,70.72
2022-08-20T07:36:41.117Z,70.72
2022-08-20T07:37:41.105Z,70.72
2022-08-20T07:38:41.125Z,70.72
2022-08-20T07:39:41.167Z,70.62
2022-08-20T07:40:41.074Z,70.62
2022-08-20T07:41:41.064Z,70.72
2022-08-20T07:42:41.052Z,70.72
2022-08-20T07:43:41.043Z,70.62
2022-08-20T07:44:41.063Z,70.62
2022-08-20T07:45:41.019Z,70.62
2022-08-20T07:46:42.009Z,70.72
2022-08-20T07:47:41.001Z,70.62
2022-08-20T07:48:40.989Z,70.62
2022-08-20T07:49:40.982Z,70.42
2022-08-20T07:50:40.997Z,70.42
2022-08-20T07:51:40.958Z,70.42
2022-08-20T07:52:40.948Z,70.52
2022-08-20T07:53:40.940Z,70.62
2022-08-20T07:54:40.929Z,70.62
2022-08-20T07:55:40.944Z,70.62
2022-08-20T07:56:41.905Z,70.62
2022-08-20T07:57:40.894Z,70.62
2022-08-20T07:58:40.884Z,70.62
2022-08-20T07:59:40.874Z,70.62
2022-08-20T08:00:40.963Z,70.62
2022-08-20T08:01:40.852Z,70.52
2022-08-20T08:02:40.842Z,70.52
2022-08-20T08:03:50.304Z,70.52
2022-08-20T08:04:41.819Z,70.52
2022-08-20T08:05:40.863Z,70.62
2022-08-20T08:06:40.812Z,70.62
2022-08-20T08:07:40.788Z,70.62
2022-08-20T08:08:40.777Z,70.72
2022-08-20T08:09:40.766Z,70.72
2022-08-20T08:10:40.760Z,70.72
2022-08-20T08:11:45.002Z,70.82
2022-08-20T08:12:41.743Z,70.82
2022-08-20T08:13:40.724Z,70.92
2022-08-20T08:14:40.715Z,70.92
2022-08-20T08:15:40.707Z,71.12
2022-08-20T08:16:40.723Z,71.22
2022-08-20T08:17:40.682Z,71.42
2022-08-20T08:18:40.682Z,71.42
2022-08-20T08:19:40.659Z,71.51
2022-08-20T08:20:46.653Z,71.62
2022-08-20T08:21:41.669Z,71.58
2022-08-20T08:22:40.629Z,71.58
2022-08-20T08:23:40.617Z,71.69
2022-08-20T08:24:40.609Z,71.78
2022-08-20T08:25:40.596Z,71.69
2022-08-20T08:26:40.617Z,71.69
2022-08-20T08:27:40.609Z,71.69
2022-08-20T08:28:40.564Z,71.69
2022-08-20T08:29:40.556Z,71.69
2022-08-20T08:30:40.546Z,71.58
2022-08-20T08:31:40.532Z,71.48
2022-08-20T08:32:40.551Z,71.48
2022-08-20T08:33:40.510Z,71.48
2022-08-20T08:34:40.499Z,71.48
2022-08-20T08:35:41.450Z,71.39
2022-08-20T08:36:40.484Z,71.39
2022-08-20T08:37:40.496Z,71.39
2022-08-20T08:38:40.460Z,71.48
2022-08-20T08:39:40.516Z,71.48
2022-08-20T08:40:40.437Z,71.39
2022-08-20T08:41:40.426Z,71.39
2022-08-20T08:42:43.306Z,71.39
2022-08-20T08:43:40.406Z,71.39
2022-08-20T08:44:40.395Z,71.39
2022-08-20T08:45:40.384Z,71.39
2022-08-20T08:46:40.375Z,71.39
2022-08-20T08:47:40.362Z,71.39
2022-08-20T08:48:40.382Z,71.39
2022-08-20T08:49:40.344Z,71.39
2022-08-20T08:50:53.191Z,71.28
2022-08-20T08:51:41.318Z,71.28
2022-08-20T08:52:40.311Z,71.19
2022-08-20T08:53:40.328Z,71.19
2022-08-20T08:54:40.291Z,71.19
2022-08-20T08:55:40.279Z,71.19
2022-08-20T08:56:40.273Z,71.28
2022-08-20T08:57:40.258Z,71.39
2022-08-20T08:58:40.282Z,71.48
2022-08-20T08:59:52.154Z,71.69
2022-08-20T09:00:44.851Z,71.69
2022-08-20T09:01:53.942Z,71.58
2022-08-20T09:02:41.245Z,71.58
2022-08-20T09:03:40.221Z,71.58
2022-08-20T09:04:40.211Z,71.58
2022-08-20T09:05:40.174Z,71.69
2022-08-20T09:06:40.163Z,71.69
2022-08-20T09:07:40.150Z,71.69
2022-08-20T09:08:40.140Z,71.69
2022-08-20T09:09:40.160Z,71.78
2022-08-20T09:10:40.119Z,71.78
2022-08-20T09:11:40.108Z,71.78
2022-08-20T09:12:42.423Z,71.88
2022-08-20T09:13:41.086Z,71.88
2022-08-20T09:14:40.107Z,71.88
2022-08-20T09:15:40.095Z,71.88
2022-08-20T09:16:52.050Z,71.88
2022-08-20T09:17:41.044Z,71.88
2022-08-20T09:18:40.036Z,71.98
2022-08-20T09:19:40.023Z,71.88
2022-08-20T09:20:40.072Z,71.98
2022-08-20T09:21:40.002Z,71.88
2022-08-20T09:22:39.992Z,71.88
2022-08-20T09:23:39.983Z,71.88
2022-08-20T09:24:39.974Z,71.98
2022-08-20T09:25:39.961Z,71.98
2022-08-20T09:26:39.984Z,71.98
2022-08-20T09:27:41.574Z,71.78
2022-08-20T09:28:39.932Z,71.88
2022-08-20T09:29:39.948Z,71.88
2022-08-20T09:30:39.911Z,71.88
2022-08-20T09:31:39.927Z,71.88
2022-08-20T09:32:39.888Z,71.88
2022-08-20T09:33:39.877Z,71.88
2022-08-20T09:34:39.868Z,71.88
2022-08-20T09:35:39.858Z,71.88
2022-08-20T09:36:39.878Z,71.88
2022-08-20T09:37:39.840Z,71.88
2022-08-20T09:38:39.824Z,71.88
2022-08-20T09:39:39.871Z,71.88
2022-08-20T09:40:39.807Z,71.88
2022-08-20T09:41:39.822Z,71.88
2022-08-20T09:42:41.573Z,71.88
2022-08-20T09:43:39.773Z,71.78
2022-08-20T09:44:39.760Z,71.78
2022-08-20T09:45:39.751Z,71.78
2022-08-20T09:46:39.740Z,71.78
2022-08-20T09:47:43.803Z,71.69
2022-08-20T09:48:40.717Z,71.69
2022-08-20T09:49:39.711Z,71.78
2022-08-20T09:50:39.714Z,71.69
2022-08-20T09:51:39.689Z,71.69
2022-08-20T09:52:40.827Z,71.69
2022-08-20T09:53:39.693Z,71.69
2022-08-20T09:54:39.656Z,71.69
2022-08-20T09:55:40.645Z,71.69
2022-08-20T09:56:39.636Z,71.69
2022-08-20T09:57:39.628Z,71.78
2022-08-20T09:58:39.645Z,71.78
2022-08-20T09:59:39.634Z,71.78
2022-08-20T10:00:39.593Z,71.69
2022-08-20T10:01:39.616Z,71.69
2022-08-20T10:02:39.574Z,71.69
2022-08-20T10:03:41.917Z,71.69
2022-08-20T10:04:39.587Z,71.69
2022-08-20T10:05:39.549Z,71.69
2022-08-20T10:06:39.530Z,71.69
2022-08-20T10:07:39.523Z,71.69
2022-08-20T10:08:39.509Z,71.69
2022-08-20T10:09:40.050Z,71.58
2022-08-20T10:10:39.514Z,71.58
2022-08-20T10:11:39.479Z,71.58
2022-08-20T10:12:39.469Z,71.58
2022-08-20T10:13:39.457Z,71.58
2022-08-20T10:14:39.447Z,71.58
2022-08-20T10:15:39.468Z,71.58
2022-08-20T10:16:39.436Z,71.58
2022-08-20T10:17:39.418Z,71.48
2022-08-20T10:18:39.405Z,71.48
2022-08-20T10:19:39.397Z,71.48
2022-08-20T10:20:39.414Z,71.48
2022-08-20T10:21:39.573Z,71.48
2022-08-20T10:22:39.362Z,71.48
2022-08-20T10:23:39.353Z,71.48
2022-08-20T10:24:39.344Z,71.48
2022-08-20T10:25:39.360Z,71.48
2022-08-20T10:26:39.320Z,71.48
2022-08-20T10:27:39.312Z,71.39
2022-08-20T10:28:39.316Z,71.39
2022-08-20T10:29:39.294Z,71.39
2022-08-20T10:30:39.308Z,71.39
2022-08-20T10:31:39.339Z,71.39
2022-08-20T10:32:39.259Z,71.39
2022-08-20T10:33:39.251Z,71.39
2022-08-20T10:34:39.244Z,71.39
2022-08-20T10:35:39.266Z,71.39
2022-08-20T10:36:39.281Z,71.39
2022-08-20T10:37:39.284Z,71.39
2022-08-20T10:38:39.194Z,71.39
2022-08-20T10:39:39.278Z,71.39
2022-08-20T10:40:39.175Z,71.39
2022-08-20T10:41:39.294Z,71.39
2022-08-20T10:42:42.466Z,71.39
2022-08-20T10:43:39.143Z,71.39
2022-08-20T10:44:39.130Z,71.39
2022-08-20T10:45:39.118Z,71.39
2022-08-20T10:46:39.109Z,71.39
2022-08-20T10:47:39.126Z,71.28
2022-08-20T10:48:39.093Z,71.28
2022-08-20T10:49:39.078Z,71.39
2022-08-20T10:50:39.067Z,71.28
2022-08-20T10:51:39.088Z,71.39
2022-08-20T10:52:39.075Z,71.39
2022-08-20T10:53:39.037Z,71.39
2022-08-20T10:54:39.024Z,71.48
2022-08-20T10:55:39.019Z,71.58
2022-08-20T10:56:39.002Z,71.48
2022-08-20T10:57:39.024Z,71.48
2022-08-20T10:58:39.864Z,71.58
2022-08-20T10:59:38.975Z,71.48
2022-08-20T11:00:38.963Z,71.69
2022-08-20T11:01:38.995Z,71.78
2022-08-20T11:02:38.941Z,71.78
2022-08-20T11:03:38.960Z,71.78
2022-08-20T11:04:38.920Z,71.78
2022-08-20T11:05:38.913Z,71.78
2022-08-20T11:06:38.899Z,71.88
2022-08-20T11:07:56.284Z,71.88
2022-08-20T11:08:39.939Z,71.88
2022-08-20T11:09:38.868Z,71.88
2022-08-20T11:10:38.858Z,71.88
2022-08-20T11:11:38.848Z,71.88
2022-08-20T11:12:38.839Z,71.78
2022-08-20T11:13:38.826Z,71.78
2022-08-20T11:14:38.846Z,71.78
2022-08-20T11:15:38.807Z,71.69
2022-08-20T11:16:38.794Z,71.69
2022-08-20T11:17:38.784Z,71.69
2022-08-20T11:18:38.773Z,71.69
2022-08-20T11:19:38.795Z,71.69
2022-08-20T11:20:38.752Z,71.69
2022-08-20T11:21:38.742Z,71.69
2022-08-20T11:22:38.731Z,71.69
2022-08-20T11:23:38.724Z,71.69
2022-08-20T11:24:38.740Z,71.69
2022-08-20T11:25:38.703Z,71.69
2022-08-20T11:26:38.689Z,71.69
2022-08-20T11:27:38.681Z,71.58
2022-08-20T11:28:38.668Z,71.58
2022-08-20T11:29:38.691Z,71.58
2022-08-20T11:30:38.648Z,71.58
2022-08-20T11:31:38.638Z,71.58
2022-08-20T11:32:38.628Z,71.58
2022-08-20T11:33:38.620Z,71.48
2022-08-20T11:34:38.608Z,71.48
2022-08-20T11:35:48.663Z,71.48
2022-08-20T11:36:39.584Z,71.48
2022-08-20T11:37:38.578Z,71.48
2022-08-20T11:38:38.565Z,71.48
2022-08-20T11:39:41.713Z,71.39
2022-08-20T11:40:38.572Z,71.39
2022-08-20T11:41:38.534Z,71.39
2022-08-20T11:42:53.259Z,71.39
2022-08-20T11:43:39.516Z,71.39
2022-08-20T11:44:38.502Z,71.39
2022-08-20T11:45:38.521Z,71.39
2022-08-20T11:46:38.506Z,71.39
2022-08-20T11:47:38.471Z,71.39
2022-08-20T11:48:38.460Z,71.28
2022-08-20T11:49:38.453Z,71.28
2022-08-20T11:50:38.439Z,71.28
2022-08-20T11:51:48.987Z,71.28
2022-08-20T11:52:39.418Z,71.28
2022-08-20T11:53:38.409Z,71.28
2022-08-20T11:54:38.397Z,71.28
2022-08-20T11:55:38.625Z,71.28
2022-08-20T11:56:38.433Z,71.19
2022-08-20T11:57:38.367Z,71.19
2022-08-20T11:58:38.355Z,71.19
2022-08-20T11:59:38.346Z,71.19
2022-08-20T12:00:38.336Z,71.19
2022-08-20T12:01:38.324Z,71.19
2022-08-20T12:02:38.402Z,71.19
2022-08-20T12:03:38.306Z,71.19
2022-08-20T12:04:38.295Z,71.19
2022-08-20T12:05:38.282Z,71.09
2022-08-20T12:06:38.273Z,71.09
2022-08-20T12:07:38.318Z,71.09
2022-08-20T12:08:38.251Z,71.09
2022-08-20T12:09:40.031Z,71.09
2022-08-20T12:10:39.230Z,71.09
2022-08-20T12:11:38.225Z,71.09
2022-08-20T12:12:38.209Z,71.09
2022-08-20T12:13:48.934Z,71.09
2022-08-20T12:14:39.186Z,71.09
2022-08-20T12:15:38.179Z,70.98
2022-08-20T12:16:38.166Z,70.98
2022-08-20T12:17:38.158Z,70.98
2022-08-20T12:18:38.172Z,70.98
2022-08-20T12:19:38.134Z,70.98
2022-08-20T12:20:38.124Z,70.98
2022-08-20T12:21:38.113Z,70.98
2022-08-20T12:22:38.101Z,70.98
2022-08-20T12:23:38.119Z,70.98
2022-08-20T12:24:38.080Z,70.98
2022-08-20T12:25:38.070Z,70.98
2022-08-20T12:26:38.062Z,70.98
2022-08-20T12:27:38.054Z,70.98
2022-08-20T12:28:38.066Z,70.98
2022-08-20T12:29:38.057Z,70.98
2022-08-20T12:30:38.022Z,70.98
2022-08-20T12:31:38.011Z,70.98
2022-08-20T12:32:37.996Z,70.98
2022-08-20T12:33:37.986Z,70.98
2022-08-20T12:34:38.003Z,70.98
2022-08-20T12:35:37.969Z,70.98
2022-08-20T12:36:37.954Z,70.98
2022-08-20T12:37:37.947Z,70.98
2022-08-20T12:38:37.935Z,70.98
2022-08-20T12:39:37.969Z,70.98
2022-08-20T12:40:37.912Z,70.98
2022-08-20T12:41:37.904Z,70.89
2022-08-20T12:42:37.892Z,70.89
2022-08-20T12:43:37.892Z,70.89
2022-08-20T12:44:37.904Z,70.89
2022-08-20T12:45:37.888Z,70.89
2022-08-20T12:46:37.851Z,70.89
2022-08-20T12:47:37.839Z,70.89
2022-08-20T12:48:37.830Z,70.89
2022-08-20T12:49:37.819Z,70.89
2022-08-20T12:50:37.840Z,70.89
2022-08-20T12:51:37.798Z,70.89
2022-08-20T12:52:37.788Z,70.89